Time;durP1;ratioP1;P1;durP2;ratioP2;P2;SDS_P1;SDS_P2;PMS_P1;PMS_P2;Temp;Humidity;BMP_temperature;BMP_pressure;BME280_temperature;BME280_humidity;BME280_pressure;Samples;Min_cycle;Max_cycle;Signal;HPM_P1;HPM_P2
2023/11/08 00:01:35;;;;;;;3.70;2.13;;;;;;;21.99;59.28;97556.47;5014258;28;20218;-25
2023/11/08 00:04:02;;;;;;;3.67;2.07;;;;;;;22.01;59.50;97556.50;5018343;28;20339;-24
2023/11/08 00:06:29;;;;;;;2.77;1.90;;;;;;;22.00;59.60;97558.22;5019329;28;20234;-24
2023/11/08 00:08:58;;;;;;;3.87;2.30;;;;;;;22.01;59.73;97559.06;5013558;28;20242;-32
2023/11/08 00:11:25;;;;;;;3.73;2.20;;;;;;;22.01;59.57;97572.75;5013835;28;20611;-24
2023/11/08 00:13:54;;;;;;;2.77;2.10;;;;;;;22.01;59.53;97567.63;5013596;28;20253;-24
2023/11/08 00:16:21;;;;;;;4.37;2.33;;;;;;;22.00;59.50;97565.91;5019166;28;20226;-24
2023/11/08 00:18:48;;;;;;;2.60;1.90;;;;;;;22.00;59.55;97559.91;5014008;28;20293;-24
2023/11/08 00:21:14;;;;;;;3.07;2.27;;;;;;;22.00;59.83;97559.91;5014982;28;20226;-23
2023/11/08 00:23:41;;;;;;;2.70;2.13;;;;;;;21.99;59.73;97563.31;5014087;28;20199;-24
2023/11/08 00:26:08;;;;;;;2.47;1.90;;;;;;;21.99;59.72;97569.25;5018475;28;20650;-24
2023/11/08 00:28:34;;;;;;;3.33;2.20;;;;;;;21.99;59.96;97566.69;5013225;28;20198;-24
2023/11/08 00:31:01;;;;;;;2.37;1.80;;;;;;;21.99;59.69;97564.16;5013539;28;20280;-25
2023/11/08 00:33:28;;;;;;;3.27;2.30;;;;;;;21.97;59.92;97564.94;5017371;28;20639;-23
2023/11/08 00:35:54;;;;;;;3.33;2.37;;;;;;;22.00;59.79;97575.25;5018556;28;20625;-25
2023/11/08 00:38:22;;;;;;;3.53;2.10;;;;;;;22.00;59.74;97575.25;5006869;28;20202;-23
2023/11/08 00:40:48;;;;;;;2.90;2.07;;;;;;;22.00;59.74;97572.69;5013921;28;20644;-24
2023/11/08 00:43:15;;;;;;;2.47;1.97;;;;;;;22.00;59.90;97577.81;5018345;28;20198;-23
2023/11/08 00:45:41;;;;;;;2.40;1.83;;;;;;;21.99;59.84;97584.63;5016432;28;20208;-25
2023/11/08 00:48:08;;;;;;;2.60;2.10;;;;;;;22.00;59.99;97581.25;5014755;28;20226;-24
2023/11/08 00:50:35;;;;;;;3.67;2.10;;;;;;;22.00;59.84;97582.94;5013113;28;20205;-26
2023/11/08 00:53:03;;;;;;;4.73;2.30;;;;;;;22.01;59.83;97587.22;5016088;28;20248;-31
2023/11/08 00:55:30;;;;;;;2.90;2.20;;;;;;;22.01;59.71;97588.09;5013472;28;20546;-24
2023/11/08 00:57:57;;;;;;;2.60;1.93;;;;;;;22.01;59.78;97584.66;5012942;28;20237;-23
2023/11/08 01:00:24;;;;;;;4.53;2.17;;;;;;;22.01;59.66;97582.97;5011221;28;20551;-24
2023/11/08 01:02:51;;;;;;;2.80;2.10;;;;;;;22.00;59.77;97581.25;5013300;28;20202;-24
2023/11/08 01:05:19;;;;;;;2.10;1.90;;;;;;;22.00;59.88;97590.63;5013589;28;20221;-23
2023/11/08 01:07:46;;;;;;;2.10;1.83;;;;;;;21.99;59.98;97588.88;5013056;28;20234;-24
2023/11/08 01:10:16;;;;;;;2.43;2.23;;;;;;;21.99;60.03;97592.28;5012997;28;20198;-31
2023/11/08 01:12:42;;;;;;;3.37;2.30;;;;;;;21.98;59.97;97588.00;5012727;28;20202;-25
2023/11/08 01:15:24;;;;;;;4.13;2.07;;;;;;;21.99;59.92;97582.06;5011128;28;20218;-24
2023/11/08 01:17:52;;;;;;;4.27;2.50;;;;;;;22.00;59.90;97580.38;5011649;28;20226;-23
2023/11/08 01:20:19;;;;;;;3.30;2.20;;;;;;;21.99;59.86;97588.88;5017696;28;20256;-23
2023/11/08 01:22:47;;;;;;;3.00;2.00;;;;;;;21.99;60.02;97587.19;5019547;28;20212;-24
2023/11/08 01:25:14;;;;;;;3.10;2.10;;;;;;;21.99;60.19;97589.72;5014439;28;20199;-24
2023/11/08 01:27:40;;;;;;;2.77;2.10;;;;;;;21.99;59.91;97587.19;5012123;28;20300;-24
2023/11/08 01:30:07;;;;;;;2.47;2.00;;;;;;;21.99;59.81;97582.06;5012404;28;20206;-24
2023/11/08 01:32:34;;;;;;;2.80;2.00;;;;;;;22.00;60.34;97581.25;5012710;28;20639;-24
2023/11/08 01:35:02;;;;;;;2.83;1.90;;;;;;;21.99;59.77;97579.50;5013003;28;20218;-24
2023/11/08 01:37:29;;;;;;;2.53;1.60;;;;;;;22.01;59.82;97589.78;5012250;28;20272;-24
2023/11/08 01:39:55;;;;;;;2.40;2.00;;;;;;;22.01;59.89;97589.78;5016439;28;20734;-24
2023/11/08 01:42:22;;;;;;;2.67;1.80;;;;;;;22.01;59.82;97582.09;5012277;28;20202;-24
2023/11/08 01:44:49;;;;;;;1.97;1.60;;;;;;;22.00;59.65;97580.38;5015057;28;20202;-25
2023/11/08 01:47:16;;;;;;;2.67;2.07;;;;;;;21.99;59.96;97571.81;5011776;28;20735;-24
2023/11/08 01:49:43;;;;;;;3.03;2.20;;;;;;;21.93;59.84;97571.66;5012182;28;20198;-24
2023/11/08 01:52:10;;;;;;;2.50;1.93;;;;;;;21.97;59.90;97576.06;4979147;28;20290;-23
2023/11/08 01:54:41;;;;;;;2.50;2.00;;;;;;;21.82;60.08;97550.03;4994848;28;20747;-25
2023/11/08 01:57:07;;;;;;;2.60;2.00;;;;;;;21.84;60.18;97557.75;4994712;28;20228;-28
2023/11/08 01:59:35;;;;;;;2.63;1.90;;;;;;;21.97;60.13;97581.16;4982576;28;20237;-24
2023/11/08 02:02:02;;;;;;;3.17;2.00;;;;;;;21.98;60.10;97576.91;4988154;28;20198;-24
2023/11/08 02:04:31;;;;;;;2.70;1.97;;;;;;;21.97;59.88;97580.28;5011375;28;20198;-25
2023/11/08 02:06:58;;;;;;;2.17;1.90;;;;;;;21.97;60.15;97575.16;5011749;28;20316;-24
2023/11/08 02:09:24;;;;;;;2.20;1.87;;;;;;;21.82;60.14;97544.03;5014206;28;20613;-26
2023/11/08 02:11:51;;;;;;;2.63;1.90;;;;;;;21.97;60.06;97570.94;4994103;28;20206;-24
2023/11/08 02:14:18;;;;;;;2.60;2.20;;;;;;;21.97;60.19;97563.25;5011764;28;20225;-25
2023/11/08 02:16:45;;;;;;;2.70;1.87;;;;;;;21.97;60.03;97573.50;5011841;28;20308;-25
2023/11/08 02:19:12;;;;;;;2.67;1.97;;;;;;;21.97;60.19;97576.06;5011664;28;20588;-23
2023/11/08 02:21:39;;;;;;;3.23;1.90;;;;;;;21.98;60.05;97576.91;5011707;28;20206;-24
2023/11/08 02:24:21;;;;;;;2.30;1.77;;;;;;;21.98;59.97;97575.22;5007037;28;20195;-25
2023/11/08 02:26:48;;;;;;;2.37;1.90;;;;;;;21.97;59.89;97570.94;5005939;28;20232;-24
2023/11/08 02:29:19;;;;;;;2.27;1.90;;;;;;;21.98;60.00;97569.22;5013085;28;20570;-23
2023/11/08 02:31:50;;;;;;;2.53;2.00;;;;;;;21.97;60.24;97567.50;5011848;28;20229;-25
2023/11/08 02:34:17;;;;;;;2.80;2.00;;;;;;;21.96;59.94;97561.50;5011376;28;20249;-29
2023/11/08 02:36:44;;;;;;;2.30;2.00;;;;;;;21.95;60.24;97562.34;5012157;28;20222;-24
2023/11/08 02:39:11;;;;;;;2.40;2.20;;;;;;;21.96;60.22;97564.06;5011326;28;20688;-24
2023/11/08 02:41:39;;;;;;;2.90;2.03;;;;;;;21.96;60.30;97564.06;5011589;28;20198;-25
2023/11/08 02:44:05;;;;;;;2.23;1.80;;;;;;;21.96;60.30;97569.19;5011731;28;20209;-23
2023/11/08 02:46:32;;;;;;;2.70;2.07;;;;;;;21.96;60.32;97564.06;5017733;28;20218;-24
2023/11/08 02:48:59;;;;;;;1.73;1.60;;;;;;;21.96;60.24;97558.09;5014146;28;20198;-24
2023/11/08 02:51:28;;;;;;;2.27;1.73;;;;;;;21.96;60.23;97551.25;5015741;28;20427;-25
2023/11/08 02:53:56;;;;;;;2.80;1.83;;;;;;;21.97;60.16;97562.38;5011644;28;20209;-25
2023/11/08 02:56:25;;;;;;;2.10;1.77;;;;;;;21.96;60.32;97552.97;5011319;28;20221;-24
2023/11/08 02:58:53;;;;;;;2.63;1.90;;;;;;;21.96;60.26;97551.25;5008692;28;20203;-24
2023/11/08 03:01:21;;;;;;;2.57;1.73;;;;;;;21.96;60.19;97566.63;5011409;28;20216;-25
2023/11/08 03:03:51;;;;;;;2.23;1.70;;;;;;;21.96;60.26;97566.63;5014918;28;20268;-23
2023/11/08 03:06:20;;;;;;;2.50;1.80;;;;;;;21.97;60.32;97573.50;5015078;28;20253;-24
2023/11/08 03:08:46;;;;;;;2.53;2.00;;;;;;;21.97;60.19;97559.81;5015429;28;20207;-23
2023/11/08 03:11:13;;;;;;;3.37;2.00;;;;;;;21.98;60.23;97569.22;5015295;28;20201;-24
2023/11/08 03:13:40;;;;;;;2.47;1.80;;;;;;;21.97;59.82;97559.81;5015314;28;20226;-24
2023/11/08 03:16:06;;;;;;;2.57;1.80;;;;;;;21.96;60.30;97569.19;5014402;28;20617;-33
2023/11/08 03:18:33;;;;;;;2.70;1.80;;;;;;;21.96;60.09;97561.50;5014607;28;20202;-24
2023/11/08 03:21:00;;;;;;;2.07;1.67;;;;;;;21.96;60.05;97569.19;5015140;28;20229;-24
2023/11/08 03:23:27;;;;;;;2.30;1.87;;;;;;;21.96;60.24;97558.94;5014990;28;20285;-24
2023/11/08 03:25:53;;;;;;;2.90;1.93;;;;;;;21.96;60.33;97574.28;5014767;28;20207;-25
2023/11/08 03:28:20;;;;;;;2.33;1.73;;;;;;;21.96;60.28;97560.66;5014734;28;20595;-26
2023/11/08 03:30:47;;;;;;;1.93;1.70;;;;;;;21.97;60.42;97562.38;5015001;28;20220;-32
2023/11/08 03:33:14;;;;;;;1.90;1.70;;;;;;;21.97;60.21;97564.94;5014557;28;20676;-30
2023/11/08 03:35:41;;;;;;;4.50;2.03;;;;;;;21.97;60.32;97568.38;5014850;28;20638;-25
2023/11/08 03:38:07;;;;;;;2.30;1.83;;;;;;;21.98;60.32;97576.91;5014747;28;20308;-25
2023/11/08 03:40:34;;;;;;;1.80;1.70;;;;;;;21.98;60.30;97576.91;5017480;28;20719;-24
2023/11/08 03:43:02;;;;;;;1.67;1.50;;;;;;;21.98;60.20;97576.91;5015228;28;20237;-24
2023/11/08 03:45:28;;;;;;;2.17;1.80;;;;;;;21.98;60.25;97582.91;5014360;28;20198;-23
2023/11/08 03:47:55;;;;;;;1.70;1.60;;;;;;;21.98;60.43;97590.56;5014442;28;20712;-24
2023/11/08 03:50:22;;;;;;;1.90;1.70;;;;;;;22.00;60.32;97585.50;5014102;28;20272;-24
2023/11/08 03:52:48;;;;;;;1.97;1.77;;;;;;;21.98;60.31;97598.25;5014520;28;20673;-27
2023/11/08 03:55:15;;;;;;;1.70;1.60;;;;;;;21.99;60.09;97594.84;5018064;28;20351;-24
2023/11/08 03:57:41;;;;;;;2.10;1.90;;;;;;;21.98;60.14;97608.47;5006193;28;20226;-24
2023/11/08 04:00:08;;;;;;;1.67;1.57;;;;;;;21.98;60.22;97610.16;5018682;28;20202;-25
2023/11/08 04:02:35;;;;;;;1.90;1.70;;;;;;;21.98;60.18;97607.59;5014289;28;20206;-24
2023/11/08 04:05:02;;;;;;;2.37;1.77;;;;;;;21.96;60.20;97607.56;5014188;28;20213;-24
2023/11/08 04:07:29;;;;;;;1.60;1.50;;;;;;;21.97;60.21;97618.66;5013831;28;20226;-24
2023/11/08 04:09:56;;;;;;;2.53;1.93;;;;;;;21.98;60.28;97618.72;5015576;28;20602;-23
2023/11/08 04:12:22;;;;;;;1.90;1.70;;;;;;;21.98;60.30;97610.16;5014118;28;20198;-24
2023/11/08 04:14:49;;;;;;;1.87;1.60;;;;;;;21.98;60.38;97607.59;5012793;28;20218;-24
2023/11/08 04:17:19;;;;;;;1.83;1.50;;;;;;;21.98;60.45;97610.16;5014120;28;20257;-25
2023/11/08 04:19:46;;;;;;;1.50;1.40;;;;;;;21.98;60.32;97612.72;5006450;28;20210;-24
2023/11/08 04:22:14;;;;;;;2.37;1.57;;;;;;;21.98;60.52;97607.59;5016946;28;20194;-24
2023/11/08 04:24:43;;;;;;;2.90;1.90;;;;;;;21.97;60.29;97611.88;5013500;28;20194;-24
2023/11/08 04:27:10;;;;;;;1.80;1.70;;;;;;;21.98;60.38;97608.47;5013509;28;20219;-23
2023/11/08 04:29:41;;;;;;;2.00;1.73;;;;;;;21.98;60.20;97605.03;5013748;28;20198;-25
2023/11/08 04:32:08;;;;;;;1.60;1.50;;;;;;;21.98;60.34;97610.16;5013395;28;20210;-24
2023/11/08 04:34:35;;;;;;;2.03;1.50;;;;;;;21.98;60.25;97608.47;5013511;28;20218;-25
2023/11/08 04:37:05;;;;;;;2.17;1.70;;;;;;;21.98;60.30;97611.03;5013222;28;20214;-24
2023/11/08 04:39:32;;;;;;;1.60;1.40;;;;;;;21.98;60.19;97613.59;5013590;28;20198;-24
2023/11/08 04:41:58;;;;;;;2.47;1.80;;;;;;;21.97;60.36;97614.44;5014822;28;20206;-23
2023/11/08 04:44:25;;;;;;;2.40;1.50;;;;;;;21.98;60.15;97617.84;5013253;28;20210;-24
2023/11/08 04:46:51;;;;;;;2.43;1.40;;;;;;;21.97;60.28;97614.44;5014316;28;20700;-25
2023/11/08 04:49:18;;;;;;;2.13;1.80;;;;;;;21.96;60.53;97620.34;5013248;28;20198;-23
2023/11/08 04:51:45;;;;;;;1.60;1.50;;;;;;;21.97;60.36;97618.66;5013335;28;20198;-24
2023/11/08 04:54:12;;;;;;;1.80;1.70;;;;;;;21.97;60.39;97611.00;5012983;28;20577;-24
2023/11/08 04:56:40;;;;;;;2.03;1.80;;;;;;;21.97;60.25;97617.00;5012785;28;20313;-23
2023/11/08 04:59:11;;;;;;;2.57;1.90;;;;;;;21.97;60.67;97617.00;5013411;28;20229;-23
2023/11/08 05:01:38;;;;;;;1.87;1.60;;;;;;;21.98;60.21;97605.03;5009968;28;20592;-24
2023/11/08 05:04:05;;;;;;;2.50;1.90;;;;;;;21.97;60.36;97603.31;5016612;28;20614;-26
2023/11/08 05:06:31;;;;;;;1.77;1.63;;;;;;;21.98;60.44;97605.03;5028538;23;20222;-26
2023/11/08 05:08:58;;;;;;;2.10;1.43;;;;;;;21.98;60.42;97599.94;5032579;28;20250;-26
2023/11/08 05:11:25;;;;;;;1.60;1.50;;;;;;;21.98;60.19;97590.56;5031442;28;20206;-31
2023/11/08 05:13:52;;;;;;;1.50;1.40;;;;;;;21.99;60.40;97594.00;5026231;28;20300;-26
2023/11/08 05:16:21;;;;;;;1.80;1.53;;;;;;;21.98;60.30;97593.13;5031827;28;20218;-27
2023/11/08 05:18:50;;;;;;;2.10;1.60;;;;;;;21.99;60.35;97594.00;5012009;28;20676;-26
2023/11/08 05:21:17;;;;;;;1.50;1.40;;;;;;;21.99;60.13;97594.84;5012341;28;20570;-26
2023/11/08 05:23:43;;;;;;;1.60;1.50;;;;;;;21.98;60.17;97603.38;4994322;28;20202;-29
2023/11/08 05:26:10;;;;;;;1.87;1.60;;;;;;;21.98;60.22;97599.94;5012376;28;20198;-26
2023/11/08 05:28:37;;;;;;;2.03;1.60;;;;;;;21.98;60.39;97605.03;5006559;28;20226;-31
2023/11/08 05:31:04;;;;;;;1.70;1.60;;;;;;;21.98;60.13;97612.72;4999343;28;20205;-27
2023/11/08 05:33:30;;;;;;;1.53;1.43;;;;;;;21.97;60.39;97611.00;4998787;28;20349;-27
2023/11/08 05:35:59;;;;;;;1.83;1.67;;;;;;;21.98;60.42;97613.59;5001712;28;20783;-26
2023/11/08 05:38:26;;;;;;;1.50;1.40;;;;;;;21.98;60.38;97605.91;4999549;28;20719;-37
2023/11/08 05:40:53;;;;;;;1.57;1.47;;;;;;;21.91;60.43;97595.47;5002188;28;20649;-27
2023/11/08 05:43:21;;;;;;;1.53;1.30;;;;;;;21.99;59.89;97614.47;4997187;28;20222;-28
2023/11/08 05:45:48;;;;;;;1.90;1.43;;;;;;;21.99;60.16;97615.31;5002243;28;21669;-27
2023/11/08 05:48:15;;;;;;;1.40;1.30;;;;;;;21.98;60.15;97613.59;4999200;28;20228;-32
2023/11/08 05:50:43;;;;;;;1.80;1.60;;;;;;;21.99;60.31;97620.44;4999631;28;20210;-26
2023/11/08 05:53:13;;;;;;;1.70;1.60;;;;;;;22.00;60.32;97622.19;4997154;28;20490;-26
2023/11/08 05:55:41;;;;;;;3.07;1.30;;;;;;;22.01;60.24;97620.50;5002694;28;20218;-26
2023/11/08 05:58:08;;;;;;;1.53;1.43;;;;;;;22.00;60.10;97626.44;5003279;28;20295;-27
2023/11/08 06:00:40;;;;;;;1.40;1.30;;;;;;;22.01;60.15;97626.47;5000454;28;20214;-35
2023/11/08 06:03:06;;;;;;;1.60;1.50;;;;;;;22.01;60.12;97629.03;5001777;28;20238;-29
2023/11/08 06:05:33;;;;;;;1.80;1.60;;;;;;;22.01;60.15;97628.16;5007470;28;20266;-26
2023/11/08 06:08:03;;;;;;;1.73;1.40;;;;;;;22.00;60.12;97626.44;5007023;28;20234;-28
2023/11/08 06:10:31;;;;;;;2.03;1.80;;;;;;;21.99;60.04;97635.81;5009658;28;20214;-30
2023/11/08 06:12:57;;;;;;;1.40;1.30;;;;;;;21.99;60.02;97627.28;5010593;28;20221;-27
2023/11/08 06:15:24;;;;;;;1.63;1.53;;;;;;;21.99;60.10;97633.25;5007370;28;20222;-28
2023/11/08 06:17:52;;;;;;;2.50;1.40;;;;;;;22.01;60.11;97638.41;5011745;28;20226;-26
2023/11/08 06:20:19;;;;;;;1.70;1.60;;;;;;;22.01;60.15;97636.72;5007747;28;20202;-26
2023/11/08 06:22:47;;;;;;;1.43;1.33;;;;;;;22.03;60.44;97639.31;5011804;28;20213;-28
2023/11/08 06:25:14;;;;;;;1.63;1.40;;;;;;;22.03;60.21;97637.66;5012275;28;20648;-26
2023/11/08 06:27:40;;;;;;;5.10;1.60;;;;;;;22.05;60.33;97630.00;5010197;28;20264;-31
2023/11/08 06:30:08;;;;;;;1.60;1.40;;;;;;;22.06;60.32;97635.19;5010630;28;20640;-28
2023/11/08 06:32:35;;;;;;;3.10;1.63;;;;;;;22.08;60.50;97635.22;5011660;28;20198;-28
2023/11/08 06:35:02;;;;;;;2.10;1.70;;;;;;;22.07;60.17;97638.56;5011772;28;20222;-26
2023/11/08 06:37:29;;;;;;;1.73;1.50;;;;;;;22.08;58.77;97648.88;5010800;28;20250;-31
2023/11/08 06:39:56;;;;;;;3.77;1.87;;;;;;;22.06;55.90;97647.09;5011809;28;20206;-26
2023/11/08 06:42:23;;;;;;;2.07;1.60;;;;;;;22.04;53.71;97646.16;5005768;28;20199;-26
2023/11/08 06:44:50;;;;;;;3.93;1.90;;;;;;;22.02;52.14;97643.56;5011626;28;20198;-27
2023/11/08 06:47:17;;;;;;;3.53;1.90;;;;;;;22.00;49.80;97642.66;5011244;28;20230;-28
2023/11/08 06:49:44;;;;;;;1.87;1.60;;;;;;;21.98;48.95;97651.09;5011540;28;20294;-26
2023/11/08 06:52:10;;;;;;;3.43;1.83;;;;;;;21.96;47.57;97663.84;5012062;28;20198;-26
2023/11/08 06:54:39;;;;;;;6.43;1.73;;;;;;;21.93;46.69;97666.31;5010977;28;20241;-27
2023/11/08 06:57:06;;;;;;;3.27;1.47;;;;;;;21.89;46.78;97668.75;5004743;28;20650;-27
2023/11/08 06:59:32;;;;;;;3.20;2.17;;;;;;;21.90;46.01;97665.38;5007923;28;20202;-26
2023/11/08 07:01:59;;;;;;;3.13;1.93;;;;;;;21.88;46.05;97677.25;5011503;28;20257;-26
2023/11/08 07:04:28;;;;;;;3.13;1.70;;;;;;;21.87;46.90;97675.53;5011664;28;20680;-26
2023/11/08 07:06:55;;;;;;;2.27;2.07;;;;;;;21.86;47.83;97681.44;5011001;28;20236;-26
2023/11/08 07:09:22;;;;;;;3.43;2.23;;;;;;;21.86;48.68;97677.22;5011410;28;20308;-26
2023/11/08 07:11:48;;;;;;;2.30;2.10;;;;;;;21.86;49.30;97674.66;5010976;28;20330;-29
2023/11/08 07:14:15;;;;;;;6.60;1.90;;;;;;;21.87;50.26;97684.06;5006025;28;20202;-28
2023/11/08 07:16:43;;;;;;;4.23;1.90;;;;;;;21.87;50.79;97678.94;5008671;28;20273;-26
2023/11/08 07:19:12;;;;;;;3.90;2.00;;;;;;;21.88;51.02;97688.38;5011844;28;20209;-26
2023/11/08 07:21:39;;;;;;;2.57;1.73;;;;;;;21.88;51.72;97695.16;5011482;28;20202;-26
2023/11/08 07:24:07;;;;;;;3.20;2.17;;;;;;;21.89;51.84;97691.78;5011778;28;20203;-26
2023/11/08 07:26:34;;;;;;;1.93;1.73;;;;;;;21.87;52.17;97696.84;5011918;28;20226;-26
2023/11/08 07:29:04;;;;;;;2.10;1.80;;;;;;;21.86;52.54;97697.69;5011229;28;20222;-26
2023/11/08 07:31:31;;;;;;;2.43;1.93;;;;;;;21.87;53.00;97704.53;5011653;28;20230;-26
2023/11/08 07:33:58;;;;;;;4.83;1.90;;;;;;;21.85;50.15;97697.63;5010902;28;20684;-27
2023/11/08 07:36:25;;;;;;;2.90;1.63;;;;;;;21.84;49.54;97694.19;5011405;28;20257;-26
2023/11/08 07:38:51;;;;;;;2.97;1.87;;;;;;;21.84;49.30;97696.75;5006557;28;20211;-36
2023/11/08 07:41:18;;;;;;;4.03;1.93;;;;;;;21.84;50.23;97698.47;5007907;28;20234;-27
2023/11/08 07:43:45;;;;;;;2.47;1.73;;;;;;;21.84;51.00;97696.75;5008050;28;20220;-26
2023/11/08 07:46:12;;;;;;;2.73;1.93;;;;;;;21.85;51.26;97697.63;5003108;28;20297;-29
2023/11/08 07:48:38;;;;;;;3.23;2.30;;;;;;;21.85;51.85;97695.94;5009384;28;20766;-30
2023/11/08 07:51:08;;;;;;;6.57;1.80;;;;;;;21.86;52.04;97695.13;5011327;28;20220;-26
2023/11/08 07:53:35;;;;;;;4.57;1.90;;;;;;;21.87;52.36;97696.00;5007804;28;20213;-28
2023/11/08 07:56:02;;;;;;;4.03;1.93;;;;;;;21.88;52.87;97695.16;5010226;28;20752;-33
2023/11/08 07:58:28;;;;;;;6.37;2.10;;;;;;;21.87;53.01;97698.56;4994802;28;20226;-29
2023/11/08 08:00:55;;;;;;;2.70;2.03;;;;;;;21.87;53.14;97698.56;5005759;28;20297;-26
2023/11/08 08:03:22;;;;;;;3.37;1.90;;;;;;;21.87;53.26;97704.53;5011592;28;20210;-26
2023/11/08 08:05:48;;;;;;;3.53;1.47;;;;;;;21.86;53.54;97697.69;4999519;28;20912;-28
2023/11/08 08:08:15;;;;;;;1.90;1.70;;;;;;;21.86;53.76;97696.81;5000308;28;20253;-38
2023/11/08 08:10:44;;;;;;;2.40;1.77;;;;;;;21.87;54.01;97694.28;5000801;28;20297;-27
2023/11/08 08:13:11;;;;;;;3.03;1.90;;;;;;;21.87;53.73;97694.28;5001224;28;20273;-26
2023/11/08 08:15:53;;;;;;;2.27;1.90;;;;;;;21.89;54.28;97697.78;5003117;28;20245;-42
2023/11/08 08:18:20;;;;;;;3.40;1.83;;;;;;;21.87;54.49;97694.28;4999807;28;20596;-27
2023/11/08 08:20:47;;;;;;;2.63;1.70;;;;;;;21.89;54.54;97700.34;5001426;28;20210;-34
2023/11/08 08:23:14;;;;;;;1.70;1.60;;;;;;;21.90;54.71;97696.09;5002398;28;20214;-28
2023/11/08 08:25:41;;;;;;;2.53;1.90;;;;;;;21.90;54.60;97702.06;4984371;28;20984;-26
2023/11/08 08:28:08;;;;;;;1.70;1.60;;;;;;;21.90;55.12;97696.94;4988486;28;20221;-28
2023/11/08 08:30:34;;;;;;;2.53;1.53;;;;;;;21.90;54.98;97702.06;5002280;28;20203;-40
2023/11/08 08:33:04;;;;;;;3.17;1.80;;;;;;;21.91;55.06;97696.13;4998694;28;20217;-31
2023/11/08 08:35:31;;;;;;;1.67;1.50;;;;;;;21.92;55.04;97707.22;5001560;28;20218;-37
2023/11/08 08:38:01;;;;;;;3.50;1.60;;;;;;;21.92;55.49;97710.66;5002082;28;20222;-31
2023/11/08 08:40:30;;;;;;;2.97;1.90;;;;;;;21.96;55.74;97703.97;5004247;28;20595;-29
2023/11/08 08:42:56;;;;;;;5.43;2.10;;;;;;;21.97;55.99;97713.34;5004348;28;20225;-27
2023/11/08 08:45:23;;;;;;;10.57;1.93;;;;;;;21.98;56.32;97717.66;4986492;28;20277;-30
2023/11/08 08:47:52;;;;;;;7.27;2.03;;;;;;;21.98;56.65;97718.53;5005209;28;20602;-29
2023/11/08 08:50:19;;;;;;;6.20;1.77;;;;;;;21.80;56.72;97684.69;5003433;28;20301;-28
2023/11/08 08:52:45;;;;;;;3.33;1.73;;;;;;;22.03;56.76;97716.09;5004141;28;20210;-31
2023/11/08 08:55:15;;;;;;;7.17;1.93;;;;;;;22.01;56.87;97710.94;5004878;28;20216;-28
2023/11/08 08:57:46;;;;;;;2.73;2.13;;;;;;;22.06;57.26;97717.06;4986760;28;20222;-26
2023/11/08 09:00:19;;;;;;;14.50;2.17;;;;;;;22.06;57.17;97714.50;5008932;28;20563;-26
2023/11/08 09:02:46;;;;;;;4.07;1.90;;;;;;;22.09;57.23;97704.38;5012237;28;20648;-29
2023/11/08 09:05:20;;;;;;;5.70;2.13;;;;;;;22.11;57.54;97710.38;5013141;28;20208;-26
2023/11/08 09:07:49;;;;;;;5.60;1.90;;;;;;;22.12;57.60;97717.25;5012781;28;20866;-26
2023/11/08 09:10:15;;;;;;;7.97;1.77;;;;;;;22.13;57.80;97718.97;5012586;28;20252;-28
2023/11/08 09:12:42;;;;;;;5.13;1.83;;;;;;;22.14;57.76;97722.44;5013198;28;20261;-28
2023/11/08 09:15:11;;;;;;;5.77;2.27;;;;;;;22.14;57.74;97714.75;5012694;28;20198;-26
2023/11/08 09:17:39;;;;;;;4.07;1.70;;;;;;;22.14;57.94;97715.59;5013027;28;20634;-28
2023/11/08 09:20:09;;;;;;;5.70;1.87;;;;;;;22.15;58.17;97724.16;5008271;28;20483;-29
2023/11/08 09:22:37;;;;;;;5.33;2.13;;;;;;;22.16;58.29;97713.06;5012099;28;20198;-26
2023/11/08 09:25:07;;;;;;;7.83;2.60;;;;;;;22.16;58.42;97715.63;5004301;28;20638;-26
2023/11/08 09:27:33;;;;;;;8.63;2.30;;;;;;;22.15;58.34;97722.47;5012932;28;20210;-26
2023/11/08 09:30:00;;;;;;;7.97;2.30;;;;;;;22.17;58.14;97723.38;4999151;28;20216;-28
2023/11/08 09:32:27;;;;;;;6.53;2.10;;;;;;;22.17;58.31;97731.03;5010650;28;20205;-28
2023/11/08 09:34:54;;;;;;;6.47;2.03;;;;;;;22.18;58.31;97727.69;5010053;28;20272;-28
2023/11/08 09:37:21;;;;;;;5.57;2.40;;;;;;;22.18;58.40;97730.25;5008151;28;20218;-28
2023/11/08 09:39:49;;;;;;;4.20;2.20;;;;;;;22.20;58.56;97731.13;5010601;28;20260;-26
2023/11/08 09:42:20;;;;;;;6.00;2.10;;;;;;;22.20;58.53;97730.28;5002096;28;20307;-26
2023/11/08 09:44:47;;;;;;;7.73;1.87;;;;;;;22.20;58.64;97718.34;4999992;28;20202;-28
2023/11/08 09:47:14;;;;;;;6.73;2.00;;;;;;;22.21;58.55;97719.22;5000193;28;20273;-28
2023/11/08 09:49:41;;;;;;;3.47;1.90;;;;;;;22.21;58.49;97711.53;4998270;28;20267;-29
2023/11/08 09:52:09;;;;;;;5.30;1.90;;;;;;;22.19;58.22;97703.81;4999154;28;20207;-30
2023/11/08 09:54:35;;;;;;;4.00;1.80;;;;;;;22.20;58.66;97710.66;5001782;28;20209;-28
2023/11/08 09:57:03;;;;;;;2.90;1.70;;;;;;;22.20;58.72;97707.25;4983183;28;20720;-28
2023/11/08 09:59:29;;;;;;;6.03;2.27;;;;;;;22.19;58.59;97702.94;5003496;28;20205;-28
2023/11/08 10:01:57;;;;;;;3.53;2.03;;;;;;;22.20;58.67;97702.97;4982811;28;20207;-35
2023/11/08 10:04:25;;;;;;;5.37;1.90;;;;;;;22.20;58.73;97709.81;4999710;28;20218;-34
2023/11/08 10:07:01;;;;;;;3.67;1.77;;;;;;;22.19;58.56;97701.25;4984146;28;20232;-29
2023/11/08 10:09:31;;;;;;;5.03;1.73;;;;;;;22.21;58.57;97701.28;5000636;28;20210;-28
2023/11/08 10:11:58;;;;;;;3.77;1.97;;;;;;;22.21;58.70;97703.84;5000444;28;20664;-27
2023/11/08 10:14:35;;;;;;;6.40;1.90;;;;;;;22.21;58.53;97699.63;5001185;28;20735;-38
2023/11/08 10:17:06;;;;;;;4.37;2.07;;;;;;;22.21;58.62;97699.63;4998208;28;20221;-31
2023/11/08 10:19:52;;;;;;;5.30;1.73;;;;;;;22.21;58.58;97694.50;4988730;28;20221;-27
2023/11/08 10:22:24;;;;;;;3.33;1.90;;;;;;;22.20;58.06;97687.63;5000252;28;20226;-30
2023/11/08 10:24:55;;;;;;;4.43;1.70;;;;;;;22.21;58.61;97684.25;5008304;28;20260;-26
2023/11/08 10:27:23;;;;;;;2.93;1.97;;;;;;;22.21;58.66;97685.94;4990062;28;20305;-28
2023/11/08 10:29:50;;;;;;;2.00;1.80;;;;;;;22.20;58.87;97690.16;5006612;28;20202;-26
2023/11/08 10:32:19;;;;;;;2.23;1.60;;;;;;;22.21;58.67;97683.38;5011397;28;20250;-27
2023/11/08 10:34:47;;;;;;;3.20;2.00;;;;;;;22.19;58.64;97688.44;5009706;28;20202;-33
2023/11/08 10:37:26;;;;;;;4.83;1.77;;;;;;;22.20;58.70;97682.50;5010475;28;20226;-28
2023/11/08 10:39:56;;;;;;;7.67;2.03;;;;;;;22.20;58.78;97671.41;5010924;28;20306;-27
2023/11/08 10:42:24;;;;;;;3.37;1.90;;;;;;;22.19;58.68;97665.41;4985580;28;20201;-34
2023/11/08 10:44:52;;;;;;;5.73;1.87;;;;;;;22.20;58.50;97668.84;5008685;28;20198;-28
2023/11/08 10:47:18;;;;;;;3.43;1.60;;;;;;;22.19;58.70;97657.72;5011259;28;20250;-26
2023/11/08 10:49:46;;;;;;;2.97;1.80;;;;;;;22.20;58.61;97664.56;4993245;28;20244;-28
2023/11/08 10:52:13;;;;;;;2.77;1.80;;;;;;;22.19;58.62;97655.16;5011095;28;20240;-31
2023/11/08 10:54:40;;;;;;;3.93;1.80;;;;;;;22.20;58.65;97668.84;5017050;28;20202;-27
2023/11/08 10:57:07;;;;;;;1.73;1.60;;;;;;;22.20;58.68;97650.94;5011462;28;20226;-28
2023/11/08 10:59:35;;;;;;;3.07;1.80;;;;;;;22.18;58.81;97650.88;4999180;28;20230;-27
2023/11/08 11:02:17;;;;;;;3.13;1.70;;;;;;;22.21;58.61;97657.78;5008927;28;20195;-26
2023/11/08 11:04:44;;;;;;;4.60;2.10;;;;;;;22.20;58.71;97651.78;5010590;28;20260;-26
2023/11/08 11:07:11;;;;;;;1.43;1.33;;;;;;;22.22;58.68;97654.38;5019302;23;20248;-24
2023/11/08 11:09:38;;;;;;;1.90;1.60;;;;;;;22.20;58.69;97646.66;5024652;28;20198;-22
2023/11/08 11:12:09;;;;;;;3.47;1.57;;;;;;;22.19;58.78;97639.81;5025867;28;20271;-24
2023/11/08 11:14:45;;;;;;;6.47;1.67;;;;;;;22.19;58.91;97633.81;5025903;28;20576;-24
2023/11/08 11:17:22;;;;;;;3.00;1.60;;;;;;;22.10;59.08;97623.31;4992956;28;20229;-24
2023/11/08 11:19:49;;;;;;;2.40;1.60;;;;;;;22.19;58.98;97638.94;4995532;28;20220;-22
2023/11/08 11:22:18;;;;;;;2.90;1.40;;;;;;;22.19;58.75;97641.50;5013405;28;20213;-24
2023/11/08 11:24:46;;;;;;;2.10;1.60;;;;;;;22.18;58.96;97645.75;5026186;28;20269;-23
2023/11/08 11:27:36;;;;;;;2.60;1.67;;;;;;;22.18;58.96;97632.97;5022398;28;20230;-24
2023/11/08 11:30:18;;;;;;;1.70;1.47;;;;;;;22.19;58.90;97628.69;5019359;28;20205;-24
2023/11/08 11:32:47;;;;;;;3.00;1.60;;;;;;;22.18;58.93;97627.84;5021121;28;20259;-24
2023/11/08 11:35:18;;;;;;;3.40;2.03;;;;;;;22.18;58.72;97627.84;5029957;28;20209;-23
2023/11/08 11:38:23;;;;;;;2.07;1.60;;;;;;;22.20;58.95;97633.00;5030163;28;20240;-24